Hovedside
METAR-TAF:

METAR-TAF

Lufthavner :

Vidsel, Sverige

breddegrad: 65-52N, lengdegrad: 020-08E, høyde over havet: 180 m

Gjeldene værobservasjon

Denne rapporten ble laget for 19 minutter siden, klokken 05:50 UTC
Flau vind
Temperatur -10°C
Luftfuktighet 79%
Trykk 1015 hPa
Sikt 10 km eller mer

METAR: ESPE 240550Z AUTO 00000KT 9999 NCD M10/M13 Q1015

Tid: 07:09 (06:09 UTC)

Varsel

Denne rapporten ble laget for 18 timer og 39 minutter siden, klokken 11:30 UTC
Varsel gyldig fra 23. klokken 12 UTC til 23. klokken 15 UTC
Vind 15 kt fra Vest-nordvest med vindkast opp mot 25 kt
Sikt 10 km eller mer
Brutte skyer i en høyde av 4000 ft
Midlertidig
fra 23. klokken 12 UTC til 23. klokken 15 UTC
Sikt: 1000 m
Brutte skyer i en høyde av 1500 ft, Bygeskyer.
snøbyger

TAF: ESPE 231130Z 2312/2315 29015G25KT 9999 BKN040 TEMPO 2312/2315 1000 SHSN BKN015CB RMK MIL

Værobservasjoner og værvarsel for over 4000 flyplasser (METAR- og TAF-rapporter).

Tilgjengelige stasjoner er representert av de røde og gule prikkene på kartet.

Hold musepekeren over prikken for å se navnet på stasjonen.

Klikk så for å se værobservasjoner og -varsler.

For å forandre kartet kan du klikke på den grønne knappen med svart kryss for å zoome inn, på den grønne knappen med strek for å zoome ut, eller på de grønne pilene for å se tilstøtende kart.


METAR-TAF: